Terminal Aerodrome Forecast
Issued by NWS

Home | Current Version | Previous Version | Text Only | Print | Product List | Glossary On
Versions: 1 2 3 4 5 6 7 8 9 10 11 12 13 14 15 16 17 18 19 20 21 22 23
000
FTUS41 KBGM 302300
TAFRME
TAF
KRME 302328Z 3100/3124 VRB03KT P6SM BKN050 BKN100
      TEMPO 3100/3102 32006KT 2SM -SHRA OVC040
     FM310700 11003KT 4SM BR FEW050 SCT100
     FM311200 19006KT P6SM SCT035 BKN050
      TEMPO 3112/3116 4SM -SHRA OVC035
     FM311600 24008KT P6SM SCT040 BKN100=

USA.gov is the U.S. government's official web portal to all federal, state and local government web resources and services.